Pine View, North Carolina
Current Conditions -  °F | °C
As of 3:55 PM on Tuesday 21 Oct 2014 (Local Time) from KTTA Reporting Station
Scattered Clouds Scattered Clouds  
Wind Chill: 73°   Ceiling: Unl
Heat Index: 73°   Visibility: 10mi
Dew Point: 49°   Wind: 5mph
Humidity: 42%   Direction: 240°WSW
Pressure: 29.83"   Gusts: NA
Location:  35.493°N, 79.1765°W
Report Text: KTTA 211955Z AUTO 24004KT 10SM SCT060 SCT070 23/09 A2983 RMK AO2 T02260092
Loading
Personal Weather Stations






























Interactive Weather Map
Tropical Storm Tracking
New forecast layout! Learn more

10-Day Weather Forecast

Advertisements
Track Severe Weather on mobile